Time;durP1;ratioP1;P1;durP2;ratioP2;P2;SDS_P1;SDS_P2;PMS_P1;PMS_P2;Temp;Humidity;BMP_temperature;BMP_pressure;BME280_temperature;BME280_humidity;BME280_pressure;Samples;Min_cycle;Max_cycle;Signal;HPM_P1;HPM_P2
2024/01/12 00:00:36;;;;;;;20.98;13.73;;;2.40;99.90;;;;;;5099132;28;20730;-35
2024/01/12 00:03:02;;;;;;;21.73;13.35;;;2.40;99.90;;;;;;5098113;28;20031;-36
2024/01/12 00:05:28;;;;;;;25.77;14.38;;;2.40;99.90;;;;;;5099163;28;20907;-36
2024/01/12 00:07:54;;;;;;;24.17;15.13;;;2.40;99.90;;;;;;5098341;28;20044;-35
2024/01/12 00:10:20;;;;;;;25.27;14.93;;;2.40;99.90;;;;;;5080674;28;20071;-43
2024/01/12 00:12:45;;;;;;;25.10;14.63;;;2.40;99.90;;;;;;5099098;28;20462;-36
2024/01/12 00:15:11;;;;;;;21.50;13.27;;;2.40;99.90;;;;;;5098815;28;20028;-38
2024/01/12 00:17:37;;;;;;;20.10;12.70;;;2.40;99.90;;;;;;5098846;28;20926;-35
2024/01/12 00:20:06;;;;;;;24.02;14.98;;;2.40;99.90;;;;;;5087485;28;20027;-35
2024/01/12 00:22:31;;;;;;;25.60;14.88;;;2.40;99.90;;;;;;5098993;28;20034;-35
2024/01/12 00:24:57;;;;;;;23.83;15.00;;;2.40;99.90;;;;;;5097590;28;20039;-35
2024/01/12 00:27:22;;;;;;;28.00;15.55;;;2.40;99.90;;;;;;5090547;28;20439;-36
2024/01/12 00:29:48;;;;;;;25.02;15.73;;;2.40;99.90;;;;;;5098110;28;20038;-36
2024/01/12 00:32:13;;;;;;;23.08;13.95;;;2.40;99.90;;;;;;5098341;28;20059;-35
2024/01/12 00:34:39;;;;;;;24.63;14.18;;;2.40;99.90;;;;;;5098994;28;20059;-35
2024/01/12 00:37:04;;;;;;;22.08;14.05;;;2.40;99.90;;;;;;5098510;28;20093;-35
2024/01/12 00:39:30;;;;;;;21.73;12.48;;;2.40;99.90;;;;;;5099583;28;20669;-36
2024/01/12 00:41:56;;;;;;;24.80;15.45;;;2.40;99.90;;;;;;5098407;28;20031;-36
2024/01/12 00:44:21;;;;;;;23.92;14.90;;;2.40;99.90;;;;;;5099082;28;20031;-36
2024/01/12 00:46:50;;;;;;;21.33;13.65;;;2.40;99.90;;;;;;5099427;28;20480;-35
2024/01/12 00:49:17;;;;;;;20.90;12.35;;;2.40;99.90;;;;;;5098927;28;20074;-35
2024/01/12 00:51:43;;;;;;;20.23;12.55;;;2.40;99.90;;;;;;5102413;28;20115;-35
2024/01/12 00:54:09;;;;;;;18.77;11.55;;;2.40;99.90;;;;;;5101992;28;20311;-35
2024/01/12 00:56:35;;;;;;;18.00;11.13;;;2.40;99.90;;;;;;5102352;28;20097;-35
2024/01/12 00:59:00;;;;;;;17.27;10.52;;;2.40;99.90;;;;;;5101896;28;20104;-35
2024/01/12 01:01:26;;;;;;;15.90;9.07;;;2.50;99.90;;;;;;5101937;28;20474;-35
2024/01/12 01:03:52;;;;;;;14.38;8.68;;;2.50;99.90;;;;;;5099801;28;20015;-35
2024/01/12 01:06:17;;;;;;;12.38;7.50;;;2.50;99.90;;;;;;5099951;28;20114;-35
2024/01/12 01:08:43;;;;;;;9.18;6.53;;;2.60;99.90;;;;;;5101443;28;20032;-36
2024/01/12 01:11:09;;;;;;;11.52;7.25;;;2.60;99.90;;;;;;5100394;28;20714;-36
2024/01/12 01:13:36;;;;;;;11.93;7.38;;;2.70;99.90;;;;;;5100920;28;20104;-35
2024/01/12 01:16:04;;;;;;;13.00;7.28;;;2.70;99.90;;;;;;5100346;28;20054;-35
2024/01/12 01:18:33;;;;;;;14.35;7.38;;;2.70;99.90;;;;;;5101631;28;20023;-35
2024/01/12 01:20:59;;;;;;;11.35;7.15;;;2.70;99.90;;;;;;5102210;28;20024;-35
2024/01/12 01:23:24;;;;;;;14.93;7.10;;;2.70;99.90;;;;;;5102694;28;20028;-34
2024/01/12 01:25:50;;;;;;;12.77;6.85;;;2.80;99.90;;;;;;5101768;28;20585;-35
2024/01/12 01:28:16;;;;;;;12.40;6.53;;;2.80;99.90;;;;;;5101877;28;20028;-36
2024/01/12 01:30:42;;;;;;;13.35;6.38;;;2.80;99.90;;;;;;5101552;28;20027;-34
2024/01/12 01:33:10;;;;;;;13.18;7.60;;;2.80;99.90;;;;;;5101086;28;20024;-37
2024/01/12 01:35:35;;;;;;;12.25;6.00;;;2.90;99.90;;;;;;5102089;28;20033;-40
2024/01/12 01:38:01;;;;;;;10.48;6.45;;;2.80;99.90;;;;;;5102317;28;20036;-41
2024/01/12 01:40:27;;;;;;;12.57;7.50;;;2.90;99.90;;;;;;5101732;28;20024;-36
2024/01/12 01:42:52;;;;;;;12.48;7.43;;;2.90;99.90;;;;;;5101358;28;20475;-36
2024/01/12 01:45:18;;;;;;;11.35;5.97;;;2.90;99.90;;;;;;5101801;28;20027;-37
2024/01/12 01:47:45;;;;;;;12.55;6.60;;;2.90;99.90;;;;;;5101587;28;20024;-36
2024/01/12 01:50:13;;;;;;;14.32;6.95;;;2.90;99.90;;;;;;5101789;28;20050;-42
2024/01/12 01:52:39;;;;;;;12.68;7.30;;;2.90;99.90;;;;;;5102496;28;20501;-37
2024/01/12 01:55:06;;;;;;;13.60;6.18;;;2.90;99.90;;;;;;5101203;28;20028;-38
2024/01/12 01:57:34;;;;;;;12.52;7.07;;;2.90;99.90;;;;;;5102058;28;20817;-36
2024/01/12 02:00:00;;;;;;;14.38;7.68;;;2.90;99.90;;;;;;5083029;28;20031;-35
2024/01/12 02:02:25;;;;;;;14.52;7.43;;;2.90;99.90;;;;;;5099680;28;20031;-36
2024/01/12 02:04:54;;;;;;;13.80;7.47;;;2.90;99.90;;;;;;5080673;28;20036;-35
2024/01/12 02:07:23;;;;;;;16.98;9.40;;;2.80;99.90;;;;;;5094977;28;20054;-36
2024/01/12 02:09:49;;;;;;;12.55;8.63;;;2.90;99.90;;;;;;5101011;28;20027;-39
2024/01/12 02:12:15;;;;;;;17.10;8.57;;;2.80;99.90;;;;;;5101094;28;20023;-35
2024/01/12 02:14:42;;;;;;;18.13;9.05;;;2.80;99.90;;;;;;5100493;28;20060;-36
2024/01/12 02:17:10;;;;;;;14.57;7.43;;;2.90;99.90;;;;;;5100206;28;20808;-35
2024/01/12 02:19:36;;;;;;;14.05;7.45;;;2.90;99.90;;;;;;5100519;28;20367;-36
2024/01/12 02:22:01;;;;;;;12.23;6.93;;;2.90;99.90;;;;;;5098299;28;20664;-36
2024/01/12 02:24:27;;;;;;;12.65;7.35;;;2.90;99.90;;;;;;5100813;28;20019;-35
2024/01/12 02:26:53;;;;;;;11.43;6.80;;;2.90;99.90;;;;;;5100167;28;20027;-34
2024/01/12 02:29:19;;;;;;;14.60;7.53;;;2.90;99.90;;;;;;5100047;28;20019;-37
2024/01/12 02:31:46;;;;;;;15.13;8.13;;;2.90;99.90;;;;;;5100729;28;20049;-35
2024/01/12 02:34:13;;;;;;;13.23;7.35;;;2.90;99.90;;;;;;5100075;28;20093;-36
2024/01/12 02:36:39;;;;;;;13.43;6.88;;;2.90;99.90;;;;;;5100217;28;20069;-36
2024/01/12 02:39:05;;;;;;;17.48;7.40;;;3.00;99.90;;;;;;5098498;28;20036;-37
2024/01/12 02:41:31;;;;;;;13.52;6.85;;;2.90;99.90;;;;;;5100308;28;20028;-36
2024/01/12 02:43:56;;;;;;;13.98;6.63;;;2.90;99.90;;;;;;5099207;28;20167;-37
2024/01/12 02:46:23;;;;;;;10.82;6.82;;;2.90;99.90;;;;;;5100662;28;20031;-36
2024/01/12 02:48:48;;;;;;;11.75;6.10;;;3.00;99.90;;;;;;5099721;28;20035;-35
2024/01/12 02:51:14;;;;;;;11.07;6.78;;;3.00;99.90;;;;;;5098787;28;20028;-36
2024/01/12 02:53:39;;;;;;;12.00;6.43;;;3.00;99.90;;;;;;5100350;28;20479;-35
2024/01/12 02:56:05;;;;;;;11.25;6.05;;;3.00;99.90;;;;;;5099326;28;20521;-35
2024/01/12 02:58:31;;;;;;;9.93;4.97;;;3.10;99.90;;;;;;5099291;28;20137;-35
2024/01/12 03:00:56;;;;;;;8.93;5.65;;;3.10;99.90;;;;;;5100122;28;20519;-36
2024/01/12 03:03:22;;;;;;;13.77;6.25;;;3.10;99.90;;;;;;5099692;28;20027;-34
2024/01/12 03:05:49;;;;;;;9.25;5.10;;;3.10;99.90;;;;;;5099636;28;20073;-36
2024/01/12 03:08:14;;;;;;;9.88;5.43;;;3.10;99.90;;;;;;5099525;28;20044;-36
2024/01/12 03:10:40;;;;;;;7.70;4.80;;;3.20;99.90;;;;;;5099428;28;20039;-36
2024/01/12 03:13:06;;;;;;;13.30;5.65;;;3.10;99.90;;;;;;5098448;28;20459;-35
2024/01/12 03:15:32;;;;;;;11.35;4.75;;;3.20;99.90;;;;;;5100004;28;20076;-35
2024/01/12 03:17:57;;;;;;;9.80;4.90;;;3.20;99.90;;;;;;5099217;28;20027;-35
2024/01/12 03:20:23;;;;;;;11.77;5.97;;;3.10;99.90;;;;;;5098707;28;20034;-35
2024/01/12 03:22:48;;;;;;;11.05;5.60;;;3.10;99.90;;;;;;5099597;28;20020;-36
2024/01/12 03:25:14;;;;;;;12.93;5.72;;;3.10;99.90;;;;;;5079509;28;20488;-36
2024/01/12 03:27:40;;;;;;;15.48;6.18;;;3.20;99.90;;;;;;5099496;28;20550;-35
2024/01/12 03:30:06;;;;;;;9.80;5.47;;;3.20;99.90;;;;;;5098835;28;20035;-36
2024/01/12 03:32:33;;;;;;;13.95;5.30;;;3.20;99.90;;;;;;5098384;28;20773;-35
2024/01/12 03:34:59;;;;;;;14.52;5.97;;;3.20;99.90;;;;;;5098421;28;20100;-37
2024/01/12 03:37:24;;;;;;;13.38;5.07;;;3.20;99.90;;;;;;5099459;28;20024;-36
2024/01/12 03:39:50;;;;;;;13.63;5.93;;;3.20;99.90;;;;;;5098327;28;20271;-37
2024/01/12 03:42:16;;;;;;;8.93;5.10;;;3.20;99.90;;;;;;5099176;28;20051;-35
2024/01/12 03:44:41;;;;;;;12.65;6.28;;;3.20;99.90;;;;;;5098668;28;20485;-35
2024/01/12 03:47:08;;;;;;;9.07;5.18;;;3.20;99.90;;;;;;5097914;28;20100;-35
2024/01/12 03:49:34;;;;;;;11.52;5.78;;;3.20;99.90;;;;;;5099492;28;20031;-35
2024/01/12 03:52:00;;;;;;;10.93;5.13;;;3.20;99.90;;;;;;5098747;28;20508;-34
2024/01/12 03:54:25;;;;;;;9.68;4.70;;;3.20;99.90;;;;;;5099948;28;20060;-36
2024/01/12 03:56:54;;;;;;;10.00;5.38;;;3.20;99.90;;;;;;5099161;28;20038;-36
2024/01/12 03:59:19;;;;;;;9.38;4.60;;;3.20;99.90;;;;;;5100034;28;20187;-35
2024/01/12 04:01:46;;;;;;;10.63;4.55;;;3.20;99.90;;;;;;5098482;28;20585;-35
2024/01/12 04:04:12;;;;;;;12.52;5.63;;;3.20;99.90;;;;;;5099097;28;20028;-34
2024/01/12 04:06:41;;;;;;;8.93;4.38;;;3.20;99.90;;;;;;5099095;28;20023;-35
2024/01/12 04:09:10;;;;;;;8.30;4.95;;;3.20;99.90;;;;;;5098354;28;20084;-37
2024/01/12 04:11:36;;;;;;;9.32;4.10;;;3.20;99.90;;;;;;5099084;28;20138;-35
2024/01/12 04:14:03;;;;;;;14.68;5.07;;;3.30;99.90;;;;;;5098625;28;20034;-34
2024/01/12 04:16:29;;;;;;;10.02;4.68;;;3.30;99.90;;;;;;5099192;28;20034;-35
2024/01/12 04:18:55;;;;;;;9.85;4.50;;;3.30;99.90;;;;;;5099661;28;20035;-35
2024/01/12 04:21:21;;;;;;;10.15;5.10;;;3.20;99.90;;;;;;5098716;28;20032;-35
2024/01/12 04:23:47;;;;;;;8.10;4.93;;;3.20;99.90;;;;;;5099639;28;20020;-36
2024/01/12 04:26:13;;;;;;;11.77;4.97;;;3.20;99.90;;;;;;5100491;28;20050;-37
2024/01/12 04:28:39;;;;;;;10.57;5.30;;;3.20;99.90;;;;;;5100834;28;20023;-37
2024/01/12 04:31:05;;;;;;;11.40;4.82;;;3.20;99.90;;;;;;5100582;28;20895;-36
2024/01/12 04:33:31;;;;;;;10.02;5.50;;;3.20;99.90;;;;;;5102015;28;20035;-37
2024/01/12 04:35:58;;;;;;;8.90;4.97;;;3.20;99.90;;;;;;5100501;28;20027;-35
2024/01/12 04:38:25;;;;;;;11.32;4.78;;;3.20;99.90;;;;;;5101976;28;20023;-35
2024/01/12 04:40:51;;;;;;;11.40;5.40;;;3.20;99.90;;;;;;5102037;28;20047;-36
2024/01/12 04:43:16;;;;;;;9.25;4.40;;;3.20;99.90;;;;;;5103114;28;20119;-37
2024/01/12 04:45:42;;;;;;;11.30;5.07;;;3.20;99.90;;;;;;5103460;28;20028;-36
2024/01/12 04:48:07;;;;;;;8.45;4.97;;;3.20;99.90;;;;;;5102344;28;20451;-36
2024/01/12 04:50:33;;;;;;;7.93;4.10;;;3.20;99.90;;;;;;5102457;28;20036;-36
2024/01/12 04:52:59;;;;;;;10.50;4.50;;;3.20;99.90;;;;;;5083563;28;20520;-36
2024/01/12 04:55:25;;;;;;;7.60;4.38;;;3.20;99.90;;;;;;5101948;28;20051;-35
2024/01/12 04:57:51;;;;;;;7.93;4.60;;;3.20;99.90;;;;;;5101045;28;20031;-37
2024/01/12 05:00:18;;;;;;;7.13;4.80;;;3.10;99.90;;;;;;5102149;28;20024;-36
2024/01/12 05:02:44;;;;;;;11.70;4.78;;;3.20;99.90;;;;;;5102523;28;20015;-39
2024/01/12 05:05:09;;;;;;;9.07;4.60;;;3.20;99.90;;;;;;5101561;28;20038;-37
2024/01/12 05:07:35;;;;;;;10.55;4.53;;;3.20;99.90;;;;;;5102434;28;20044;-36
2024/01/12 05:10:03;;;;;;;6.85;3.85;;;3.20;99.90;;;;;;5101408;28;20154;-37
2024/01/12 05:12:29;;;;;;;6.47;4.40;;;3.20;99.90;;;;;;5101464;28;20711;-36
2024/01/12 05:14:54;;;;;;;9.25;3.75;;;3.10;99.90;;;;;;5101529;28;20027;-39
2024/01/12 05:17:20;;;;;;;8.32;4.03;;;3.10;99.90;;;;;;5101875;28;20141;-37
2024/01/12 05:19:46;;;;;;;12.93;4.15;;;3.20;99.90;;;;;;5102696;28;20026;-36
2024/01/12 05:22:12;;;;;;;9.43;3.65;;;3.20;99.90;;;;;;5101748;28;20028;-36
2024/01/12 05:24:37;;;;;;;11.98;4.95;;;3.30;99.90;;;;;;5100272;28;20037;-36
2024/01/12 05:27:03;;;;;;;10.20;4.10;;;3.30;99.90;;;;;;5101468;28;20035;-37
2024/01/12 05:29:29;;;;;;;7.45;4.25;;;3.30;99.90;;;;;;5101872;28;20768;-36
2024/01/12 05:31:55;;;;;;;8.32;3.67;;;3.30;99.90;;;;;;5101422;28;20031;-36
2024/01/12 05:34:21;;;;;;;9.07;4.18;;;3.30;99.90;;;;;;5102479;28;20242;-36
2024/01/12 05:36:46;;;;;;;10.77;5.22;;;3.40;99.90;;;;;;5102592;28;20029;-36
2024/01/12 05:39:12;;;;;;;7.07;4.10;;;3.40;99.90;;;;;;5101233;28;20078;-36
2024/01/12 05:41:38;;;;;;;11.50;4.63;;;3.40;99.90;;;;;;5101896;28;20043;-36
2024/01/12 05:44:03;;;;;;;6.55;3.83;;;3.40;99.90;;;;;;5100897;28;20028;-35
2024/01/12 05:46:29;;;;;;;9.60;4.15;;;3.40;99.90;;;;;;5101179;28;20070;-36
2024/01/12 05:48:55;;;;;;;8.50;4.10;;;3.40;99.90;;;;;;5100744;28;20011;-36
2024/01/12 05:51:21;;;;;;;6.95;3.60;;;3.40;99.90;;;;;;5101782;28;20183;-37
2024/01/12 05:53:46;;;;;;;9.27;4.15;;;3.40;99.90;;;;;;5100481;28;20030;-35
2024/01/12 05:56:12;;;;;;;6.30;3.65;;;3.40;99.90;;;;;;5100544;28;20024;-36
2024/01/12 05:58:37;;;;;;;9.15;4.68;;;3.40;99.90;;;;;;5100595;28;20051;-36
2024/01/12 06:01:03;;;;;;;7.43;3.75;;;3.40;99.90;;;;;;5100420;28;20020;-35
2024/01/12 06:03:29;;;;;;;8.27;4.40;;;3.40;99.90;;;;;;5101976;28;20892;-34
2024/01/12 06:05:55;;;;;;;6.82;4.10;;;3.40;99.90;;;;;;5100730;28;20532;-36
2024/01/12 06:08:21;;;;;;;8.43;4.43;;;3.40;99.90;;;;;;5101096;28;20047;-37
2024/01/12 06:10:48;;;;;;;7.60;4.20;;;3.40;99.90;;;;;;5100173;28;20485;-36
2024/01/12 06:13:13;;;;;;;8.90;4.75;;;3.40;99.90;;;;;;5100175;28;20039;-36
2024/01/12 06:15:39;;;;;;;9.43;4.53;;;3.30;99.90;;;;;;5100304;28;20020;-35
2024/01/12 06:18:05;;;;;;;7.60;4.53;;;3.40;99.90;;;;;;5100918;28;20069;-35
2024/01/12 06:20:31;;;;;;;6.57;4.43;;;3.40;99.90;;;;;;5100362;28;20023;-35
2024/01/12 06:22:57;;;;;;;7.60;4.22;;;3.40;99.90;;;;;;5100297;28;20019;-36
2024/01/12 06:25:23;;;;;;;9.50;5.22;;;3.40;99.90;;;;;;5101319;28;20521;-35
2024/01/12 06:27:49;;;;;;;8.43;4.13;;;3.40;99.90;;;;;;5100511;28;20067;-36
2024/01/12 06:30:17;;;;;;;6.68;4.25;;;3.40;99.90;;;;;;5100149;28;20043;-36
2024/01/12 06:32:43;;;;;;;9.32;4.57;;;3.40;99.90;;;;;;5101115;28;20057;-35
2024/01/12 06:35:10;;;;;;;8.90;4.88;;;3.40;99.90;;;;;;5098627;28;20516;-36
2024/01/12 06:37:36;;;;;;;10.50;5.10;;;3.30;99.90;;;;;;5100250;28;20254;-37
2024/01/12 06:40:04;;;;;;;9.02;5.28;;;3.30;99.90;;;;;;5100966;28;20838;-36
2024/01/12 06:42:30;;;;;;;8.63;4.82;;;3.30;99.90;;;;;;5098154;28;20012;-36
2024/01/12 06:44:56;;;;;;;11.07;6.55;;;3.30;99.90;;;;;;5098989;28;20193;-36
2024/01/12 06:47:22;;;;;;;8.02;5.05;;;3.30;99.90;;;;;;5099621;28;20036;-35
2024/01/12 06:49:47;;;;;;;6.13;4.03;;;3.30;99.90;;;;;;5098692;28;20035;-36
2024/01/12 06:52:13;;;;;;;7.75;4.53;;;3.30;99.90;;;;;;5098913;28;20546;-37
2024/01/12 06:54:56;;;;;;;9.60;4.68;;;3.30;99.90;;;;;;5098890;28;20066;-39
2024/01/12 06:57:22;;;;;;;7.65;4.50;;;3.30;99.90;;;;;;5098510;28;20647;-36
2024/01/12 06:59:48;;;;;;;9.63;4.35;;;3.30;99.90;;;;;;5099897;28;20027;-37
2024/01/12 07:02:14;;;;;;;10.07;5.18;;;3.30;99.90;;;;;;5099335;28;20135;-36
2024/01/12 07:04:40;;;;;;;9.18;4.35;;;3.30;99.90;;;;;;5099771;28;20058;-36
2024/01/12 07:07:06;;;;;;;7.50;4.20;;;3.30;99.90;;;;;;5099200;28;20063;-37
2024/01/12 07:09:32;;;;;;;7.45;4.65;;;3.30;99.90;;;;;;5099839;28;20027;-36
2024/01/12 07:11:58;;;;;;;6.25;3.95;;;3.30;99.90;;;;;;5098505;28;20463;-37
2024/01/12 07:14:23;;;;;;;7.00;4.15;;;3.30;99.90;;;;;;5099813;28;20231;-37
2024/01/12 07:16:49;;;;;;;7.53;4.10;;;3.30;99.90;;;;;;5098685;28;20027;-36
2024/01/12 07:19:15;;;;;;;10.68;4.68;;;3.30;99.90;;;;;;5099049;28;20030;-37
2024/01/12 07:21:41;;;;;;;6.25;4.00;;;3.30;99.90;;;;;;5099083;28;20035;-36
2024/01/12 07:24:07;;;;;;;10.88;4.90;;;3.30;99.90;;;;;;5098127;28;20362;-37
2024/01/12 07:26:32;;;;;;;7.68;4.10;;;3.30;99.90;;;;;;5099712;28;20031;-35
2024/01/12 07:28:59;;;;;;;6.55;3.75;;;3.30;99.90;;;;;;5098870;28;20055;-36
2024/01/12 07:31:25;;;;;;;9.55;4.32;;;3.30;99.90;;;;;;5079928;28;20574;-36
2024/01/12 07:33:50;;;;;;;7.38;3.90;;;3.30;99.90;;;;;;5097881;28;20037;-36
2024/01/12 07:36:16;;;;;;;7.60;3.97;;;3.30;99.90;;;;;;5096897;28;20141;-36
2024/01/12 07:38:41;;;;;;;10.05;4.78;;;3.30;99.90;;;;;;5097131;28;20035;-36
2024/01/12 07:41:07;;;;;;;10.32;4.30;;;3.30;99.90;;;;;;5098144;28;20024;-36
2024/01/12 07:43:33;;;;;;;7.32;3.88;;;3.30;99.90;;;;;;5098729;28;20526;-35
2024/01/12 07:45:59;;;;;;;15.32;4.90;;;3.30;99.90;;;;;;5097890;28;20491;-36
2024/01/12 07:48:26;;;;;;;12.95;4.88;;;3.30;99.90;;;;;;5098207;28;20057;-36
2024/01/12 07:50:52;;;;;;;8.73;4.50;;;3.30;99.90;;;;;;5099092;28;20046;-35
2024/01/12 07:53:17;;;;;;;7.57;4.15;;;3.30;99.90;;;;;;5098187;28;20110;-35
2024/01/12 07:55:43;;;;;;;7.40;3.90;;;3.30;99.90;;;;;;5099619;28;20028;-36
2024/01/12 07:58:09;;;;;;;6.53;3.88;;;3.30;99.90;;;;;;5098805;28;20020;-35
2024/01/12 08:00:34;;;;;;;6.40;4.35;;;3.30;99.90;;;;;;5100331;28;20016;-36
2024/01/12 08:03:00;;;;;;;6.82;4.13;;;3.40;99.90;;;;;;5103654;28;20751;-36
2024/01/12 08:05:28;;;;;;;10.32;4.10;;;3.30;99.90;;;;;;5104543;28;20023;-36
2024/01/12 08:07:54;;;;;;;8.65;4.18;;;3.40;99.90;;;;;;5102994;28;20051;-36
2024/01/12 08:10:19;;;;;;;7.68;3.70;;;3.30;99.90;;;;;;5103702;28;20040;-37
2024/01/12 08:12:45;;;;;;;8.68;3.83;;;3.40;99.90;;;;;;5104055;28;20027;-36
2024/01/12 08:15:12;;;;;;;6.03;3.30;;;3.40;99.90;;;;;;5102576;28;20570;-35
2024/01/12 08:17:38;;;;;;;6.80;3.63;;;3.40;99.90;;;;;;5103785;28;20019;-36
2024/01/12 08:20:04;;;;;;;9.60;3.60;;;3.50;99.90;;;;;;5103257;28;20096;-36
2024/01/12 08:22:32;;;;;;;9.38;3.40;;;3.50;99.90;;;;;;5085426;28;20043;-38
2024/01/12 08:24:57;;;;;;;7.75;3.45;;;3.50;99.90;;;;;;5103053;28;20118;-36
2024/01/12 08:27:23;;;;;;;7.82;4.53;;;3.50;99.90;;;;;;5103243;28;20489;-36
2024/01/12 08:29:48;;;;;;;7.50;3.55;;;3.50;99.90;;;;;;5102225;28;20049;-36
2024/01/12 08:32:15;;;;;;;6.40;3.17;;;3.50;99.90;;;;;;5103125;28;20020;-34
2024/01/12 08:34:41;;;;;;;4.45;3.20;;;3.50;99.90;;;;;;5103136;28;20023;-35
2024/01/12 08:37:09;;;;;;;6.90;3.50;;;3.60;99.90;;;;;;5103029;28;20047;-36
2024/01/12 08:39:35;;;;;;;6.60;3.30;;;3.60;99.90;;;;;;5103703;28;20020;-36
2024/01/12 08:42:01;;;;;;;5.43;3.55;;;3.60;99.90;;;;;;5102330;28;20024;-36
2024/01/12 08:44:26;;;;;;;10.38;3.92;;;3.60;99.90;;;;;;5103775;28;20084;-36
2024/01/12 08:46:53;;;;;;;6.97;4.45;;;3.70;99.90;;;;;;5102119;28;20028;-36
2024/01/12 08:49:19;;;;;;;7.88;4.00;;;3.60;99.90;;;;;;5102047;28;20023;-35
2024/01/12 08:51:45;;;;;;;10.15;5.97;;;3.70;99.90;;;;;;5103426;28;20076;-35
2024/01/12 08:54:13;;;;;;;11.52;5.35;;;3.70;99.90;;;;;;5102641;28;20714;-36
2024/01/12 08:56:38;;;;;;;7.22;4.75;;;3.60;99.90;;;;;;5102379;28;20835;-35
2024/01/12 08:59:05;;;;;;;8.60;4.50;;;3.70;99.90;;;;;;5102909;28;20020;-36
2024/01/12 09:01:31;;;;;;;7.47;4.35;;;3.70;99.90;;;;;;5102248;28;20229;-37
2024/01/12 09:03:57;;;;;;;8.25;4.65;;;3.70;99.90;;;;;;5101465;28;20100;-36
2024/01/12 09:06:23;;;;;;;6.57;4.20;;;3.80;99.90;;;;;;5102540;28;20054;-35
2024/01/12 09:08:50;;;;;;;6.75;4.28;;;3.80;99.90;;;;;;5102077;28;20168;-36
2024/01/12 09:11:15;;;;;;;9.35;4.68;;;3.80;99.90;;;;;;5100930;28;20842;-36
2024/01/12 09:13:41;;;;;;;12.27;4.63;;;3.80;99.90;;;;;;5102151;28;20028;-36
2024/01/12 09:16:10;;;;;;;8.63;4.65;;;3.90;99.90;;;;;;5101172;28;20367;-36
2024/01/12 09:18:36;;;;;;;11.63;4.45;;;3.90;99.90;;;;;;5101808;28;20019;-35
2024/01/12 09:21:01;;;;;;;9.18;4.35;;;3.90;99.90;;;;;;5102046;28;20044;-35
2024/01/12 09:23:27;;;;;;;10.55;4.40;;;3.90;99.90;;;;;;5101295;28;20016;-36
2024/01/12 09:25:54;;;;;;;9.43;4.93;;;3.90;99.90;;;;;;5101570;28;20051;-36
2024/01/12 09:28:20;;;;;;;8.48;5.07;;;4.00;99.90;;;;;;5101991;28;20549;-36
2024/01/12 09:30:46;;;;;;;9.85;4.72;;;4.00;99.90;;;;;;5101689;28;20041;-36
2024/01/12 09:33:13;;;;;;;8.05;5.30;;;4.00;99.90;;;;;;5101407;28;20106;-35
2024/01/12 09:35:38;;;;;;;12.10;5.95;;;4.00;99.90;;;;;;5101864;28;20059;-35
2024/01/12 09:38:05;;;;;;;8.18;4.93;;;4.00;99.90;;;;;;5098747;28;20793;-37
2024/01/12 09:40:31;;;;;;;10.60;5.20;;;4.10;99.90;;;;;;5082861;28;20023;-35
2024/01/12 09:43:00;;;;;;;9.55;5.03;;;4.10;99.90;;;;;;5101566;28;20050;-35
2024/01/12 09:45:26;;;;;;;7.85;4.78;;;4.20;99.90;;;;;;5100949;28;20031;-36
2024/01/12 09:47:52;;;;;;;9.32;5.43;;;4.20;99.90;;;;;;5101406;28;20504;-37
2024/01/12 09:50:21;;;;;;;12.82;5.90;;;4.20;99.90;;;;;;5101097;28;20040;-35
2024/01/12 09:52:49;;;;;;;6.95;4.88;;;4.30;99.90;;;;;;5101388;28;20032;-40
2024/01/12 09:55:14;;;;;;;8.20;4.65;;;4.30;99.90;;;;;;5101162;28;20417;-35
2024/01/12 09:57:44;;;;;;;13.85;6.18;;;4.30;99.90;;;;;;5101262;28;20019;-36
2024/01/12 10:00:16;;;;;;;11.48;5.65;;;4.30;99.90;;;;;;5101008;28;20031;-37
2024/01/12 10:02:42;;;;;;;;;;;4.40;99.90;;;;;;5101473;28;20457;-35
2024/01/12 10:05:08;;;;;;;10.18;5.72;;;4.40;99.90;;;;;;5100595;28;19914;-35
2024/01/12 10:07:34;;;;;;;12.68;6.13;;;4.40;99.90;;;;;;5100839;28;20873;-35
2024/01/12 10:09:59;;;;;;;12.13;4.78;;;4.40;99.90;;;;;;5101081;28;20138;-35
2024/01/12 10:12:25;;;;;;;9.27;5.80;;;4.40;99.90;;;;;;5082009;28;20776;-37
2024/01/12 10:15:18;;;;;;;13.30;5.25;;;4.40;99.90;;;;;;5100826;28;20024;-36
2024/01/12 10:17:43;;;;;;;12.45;5.97;;;4.40;99.90;;;;;;5097477;28;20031;-36
2024/01/12 10:20:09;;;;;;;11.70;5.40;;;4.40;99.90;;;;;;5100552;28;20879;-36
2024/01/12 10:22:36;;;;;;;7.72;5.45;;;4.40;99.90;;;;;;5100544;28;20123;-36
2024/01/12 10:25:03;;;;;;;11.38;5.65;;;4.40;99.90;;;;;;5100654;28;20020;-36
2024/01/12 10:27:30;;;;;;;9.57;5.32;;;4.40;99.90;;;;;;5100868;28;20146;-35
2024/01/12 10:29:56;;;;;;;11.73;4.90;;;4.40;99.90;;;;;;5100668;28;20549;-36
2024/01/12 10:32:22;;;;;;;16.33;6.07;;;4.50;99.90;;;;;;5101609;28;20024;-35
2024/01/12 10:34:49;;;;;;;8.15;5.30;;;4.50;99.90;;;;;;5101270;28;20030;-35
2024/01/12 10:37:16;;;;;;;9.70;5.13;;;4.50;99.90;;;;;;5101631;28;20039;-37
2024/01/12 10:39:47;;;;;;;7.57;4.43;;;4.50;99.90;;;;;;5101283;28;20092;-36
2024/01/12 10:42:13;;;;;;;7.78;4.43;;;4.50;99.90;;;;;;5100607;28;20031;-36
2024/01/12 10:44:40;;;;;;;6.35;4.35;;;4.60;99.90;;;;;;5100733;28;20035;-36
2024/01/12 10:47:13;;;;;;;11.75;5.30;;;4.60;99.90;;;;;;5100992;28;20490;-36
2024/01/12 10:49:56;;;;;;;11.35;5.05;;;4.50;99.90;;;;;;5101054;28;20032;-36
2024/01/12 10:52:26;;;;;;;10.77;4.93;;;4.60;99.90;;;;;;5100950;28;20312;-36
2024/01/12 10:55:15;;;;;;;8.20;4.10;;;4.60;99.90;;;;;;5099966;28;20046;-36
2024/01/12 10:57:42;;;;;;;6.55;3.92;;;4.60;99.90;;;;;;5078883;28;20028;-35
2024/01/12 11:00:10;;;;;;;7.28;4.00;;;4.70;99.90;;;;;;5093219;28;20119;-36
2024/01/12 11:02:38;;;;;;;7.78;4.20;;;4.70;99.90;;;;;;5099210;28;20069;-37
2024/01/12 11:05:07;;;;;;;9.10;4.50;;;4.70;99.90;;;;;;5099083;28;20135;-36
2024/01/12 11:07:34;;;;;;;6.38;3.90;;;4.70;99.90;;;;;;5099549;28;20707;-36
2024/01/12 11:10:00;;;;;;;6.47;3.80;;;4.70;99.90;;;;;;5098737;28;20146;-36
2024/01/12 11:12:31;;;;;;;7.72;4.35;;;4.80;99.90;;;;;;5100265;28;20031;-35
2024/01/12 11:14:57;;;;;;;5.57;3.65;;;4.80;99.90;;;;;;5099618;28;20039;-42
2024/01/12 11:17:30;;;;;;;6.28;4.00;;;4.80;99.90;;;;;;5099460;28;20028;-36
2024/01/12 11:20:10;;;;;;;5.00;3.35;;;4.80;99.90;;;;;;5100466;28;20064;-37
2024/01/12 11:22:40;;;;;;;8.43;4.30;;;4.80;99.90;;;;;;5100543;28;20032;-35
2024/01/12 11:25:10;;;;;;;5.85;3.40;;;4.80;99.90;;;;;;5099354;28;20027;-36
2024/01/12 11:27:40;;;;;;;7.50;4.47;;;4.90;99.90;;;;;;5099660;28;20063;-36
2024/01/12 11:30:09;;;;;;;7.20;3.80;;;4.90;99.90;;;;;;5098289;28;20730;-36
2024/01/12 11:32:35;;;;;;;7.93;4.00;;;4.90;99.90;;;;;;5096545;28;20028;-36
2024/01/12 11:35:17;;;;;;;8.50;3.80;;;4.90;99.90;;;;;;5098618;28;20031;-35
2024/01/12 11:37:58;;;;;;;5.55;3.58;;;4.90;99.90;;;;;;5088473;28;20065;-35
2024/01/12 11:40:24;;;;;;;6.50;3.88;;;5.00;99.90;;;;;;5098952;28;20023;-35
2024/01/12 11:42:51;;;;;;;9.95;4.03;;;4.90;99.90;;;;;;5088111;28;20022;-36
2024/01/12 11:45:18;;;;;;;6.00;3.40;;;5.00;99.90;;;;;;5099085;28;20022;-35
2024/01/12 11:47:44;;;;;;;8.57;4.32;;;5.00;99.90;;;;;;5099890;28;20028;-35
2024/01/12 11:50:12;;;;;;;6.68;4.70;;;5.00;99.90;;;;;;5096722;28;20036;-35
2024/01/12 11:52:40;;;;;;;6.60;4.32;;;5.10;99.90;;;;;;5096499;28;20228;-36
2024/01/12 11:55:07;;;;;;;6.97;3.80;;;5.10;99.90;;;;;;5098901;28;20027;-36
2024/01/12 11:57:34;;;;;;;10.38;5.10;;;5.10;99.90;;;;;;5098996;28;20027;-34
2024/01/12 12:00:00;;;;;;;11.68;5.10;;;5.10;99.90;;;;;;5098413;28;20024;-44
2024/01/12 12:02:26;;;;;;;10.18;4.88;;;5.10;99.90;;;;;;5099054;28;20027;-44
2024/01/12 12:04:52;;;;;;;8.70;3.95;;;5.10;99.90;;;;;;5096722;28;20055;-36
2024/01/12 12:07:21;;;;;;;7.28;4.35;;;5.10;99.90;;;;;;5096449;28;20768;-35
2024/01/12 12:09:47;;;;;;;6.82;4.00;;;5.20;99.90;;;;;;5099472;28;20054;-35
2024/01/12 12:12:14;;;;;;;6.28;3.70;;;5.10;99.90;;;;;;5098324;28;20055;-36
2024/01/12 12:15:04;;;;;;;8.18;3.90;;;5.20;99.90;;;;;;5099390;28;20424;-35
2024/01/12 12:17:31;;;;;;;8.20;3.90;;;5.20;99.90;;;;;;5098273;28;20028;-35
2024/01/12 12:19:58;;;;;;;7.53;4.20;;;5.20;99.90;;;;;;5093984;28;20016;-35
2024/01/12 12:22:24;;;;;;;8.52;4.07;;;5.20;99.90;;;;;;5087955;28;20020;-35
2024/01/12 12:24:50;;;;;;;9.57;4.25;;;5.30;99.90;;;;;;5097495;28;20031;-35
2024/01/12 12:27:20;;;;;;;7.78;4.20;;;5.30;99.90;;;;;;5096404;28;20107;-35
2024/01/12 12:29:46;;;;;;;6.78;4.75;;;5.30;99.90;;;;;;5097703;28;20047;-35
2024/01/12 12:32:15;;;;;;;4.43;3.72;;;5.30;99.90;;;;;;5097415;28;20027;-35
2024/01/12 12:34:43;;;;;;;9.35;4.00;;;5.30;99.90;;;;;;5097556;28;20027;-35
2024/01/12 12:37:09;;;;;;;7.85;4.05;;;5.40;99.90;;;;;;5097794;28;20034;-39
2024/01/12 12:39:37;;;;;;;7.57;4.15;;;5.40;99.90;;;;;;5099238;28;20030;-35
2024/01/12 12:42:04;;;;;;;5.85;3.83;;;5.40;99.90;;;;;;5098202;28;20346;-35
2024/01/12 12:44:32;;;;;;;6.70;4.25;;;5.40;99.90;;;;;;5099639;28;20019;-35
2024/01/12 12:46:58;;;;;;;6.15;3.65;;;5.50;99.90;;;;;;5101465;28;20032;-35
2024/01/12 12:49:46;;;;;;;4.78;3.60;;;5.50;99.90;;;;;;5101314;28;20047;-36